Time;durP1;ratioP1;P1;durP2;ratioP2;P2;SDS_P1;SDS_P2;PMS_P1;PMS_P2;Temp;Humidity;BMP_temperature;BMP_pressure;BME280_temperature;BME280_humidity;BME280_pressure;Samples;Min_cycle;Max_cycle;Signal;HPM_P1;HPM_P2
2023/08/06 00:00:49;;;;;;;13.55;11.52;;;;;;;;;;5095037;28;20039;-79
2023/08/06 00:03:15;;;;;;;13.75;12.32;;;;;;;;;;5085708;28;20052;-79
2023/08/06 00:05:44;;;;;;;15.77;12.60;;;;;;;;;;5090141;28;20090;-79
2023/08/06 00:08:10;;;;;;;16.55;12.40;;;;;;;;;;5095729;28;20048;-79
2023/08/06 00:10:36;;;;;;;14.40;11.90;;;;;;;;;;5044877;28;20048;-79
2023/08/06 00:13:02;;;;;;;16.20;11.88;;;;;;;;;;5058232;28;20049;-78
2023/08/06 00:15:28;;;;;;;15.48;11.85;;;;;;;;;;5089151;28;20051;-80
2023/08/06 00:17:54;;;;;;;14.48;11.68;;;;;;;;;;5095488;28;20506;-79
2023/08/06 00:20:21;;;;;;;14.32;10.88;;;;;;;;;;5094017;28;20056;-80
2023/08/06 00:22:47;;;;;;;15.85;11.45;;;;;;;;;;5094488;28;20442;-80
2023/08/06 00:25:13;;;;;;;13.93;11.13;;;;;;;;;;5083064;28;20045;-79
2023/08/06 00:27:39;;;;;;;15.27;11.40;;;;;;;;;;5067728;28;20052;-79
2023/08/06 00:30:05;;;;;;;15.90;11.52;;;;;;;;;;5077310;28;20040;-79
2023/08/06 00:32:31;;;;;;;16.65;11.55;;;;;;;;;;5067066;28;20044;-79
2023/08/06 00:34:57;;;;;;;16.00;11.23;;;;;;;;;;5084612;28;20418;-79
2023/08/06 00:37:23;;;;;;;13.50;10.93;;;;;;;;;;5070389;28;20048;-79
2023/08/06 00:39:50;;;;;;;13.07;11.00;;;;;;;;;;5081714;28;20358;-79
2023/08/06 00:42:20;;;;;;;13.98;10.50;;;;;;;;;;5058611;28;20523;-79
2023/08/06 00:44:46;;;;;;;12.48;10.23;;;;;;;;;;5087268;28;20044;-79
2023/08/06 00:47:12;;;;;;;13.43;10.48;;;;;;;;;;5075582;28;20440;-79
2023/08/06 00:49:39;;;;;;;16.40;10.80;;;;;;;;;;5083349;28;20119;-79
2023/08/06 00:52:06;;;;;;;14.35;11.00;;;;;;;;;;5095189;28;20044;-79
2023/08/06 00:54:32;;;;;;;14.15;10.77;;;;;;;;;;5083063;28;20041;-79
2023/08/06 00:56:59;;;;;;;18.75;11.05;;;;;;;;;;5072378;28;20037;-79
2023/08/06 00:59:26;;;;;;;11.50;10.23;;;;;;;;;;5074271;28;20040;-79
2023/08/06 01:01:52;;;;;;;13.65;10.88;;;;;;;;;;5074576;28;20090;-79
2023/08/06 01:04:18;;;;;;;12.60;9.88;;;;;;;;;;5080934;28;20072;-78
2023/08/06 01:06:48;;;;;;;20.13;12.00;;;;;;;;;;5064578;28;20048;-78
2023/08/06 01:09:37;;;;;;;16.67;10.55;;;;;;;;;;5057219;28;20159;-78
2023/08/06 01:12:04;;;;;;;13.18;10.32;;;;;;;;;;5039643;28;20052;-77
2023/08/06 01:14:51;;;;;;;12.10;10.77;;;;;;;;;;5080619;28;20041;-78
2023/08/06 01:17:17;;;;;;;13.25;10.23;;;;;;;;;;5058261;28;20146;-79
2023/08/06 01:19:44;;;;;;;13.07;10.00;;;;;;;;;;5074936;28;20056;-79
2023/08/06 01:22:10;;;;;;;14.18;10.95;;;;;;;;;;5074809;28;20037;-79
2023/08/06 01:24:36;;;;;;;18.17;11.45;;;;;;;;;;5074314;28;20044;-79
2023/08/06 01:27:34;;;;;;;13.70;10.32;;;;;;;;;;5074330;28;20040;-78
2023/08/06 01:30:07;;;;;;;14.65;11.20;;;;;;;;;;5019497;28;20057;-79
2023/08/06 01:32:35;;;;;;;13.65;10.75;;;;;;;;;;5056789;28;20503;-79
2023/08/06 01:35:01;;;;;;;15.88;11.38;;;;;;;;;;5083058;28;20032;-79
2023/08/06 01:37:28;;;;;;;12.27;10.93;;;;;;;;;;5039692;28;20055;-79
2023/08/06 01:39:54;;;;;;;13.85;11.30;;;;;;;;;;5088225;28;20077;-79
2023/08/06 01:42:20;;;;;;;16.42;11.20;;;;;;;;;;5058440;28;20048;-79
2023/08/06 01:44:46;;;;;;;14.80;11.35;;;;;;;;;;5073909;28;20040;-79
2023/08/06 01:47:12;;;;;;;12.88;11.57;;;;;;;;;;5080777;28;20072;-79
2023/08/06 01:49:38;;;;;;;14.90;12.27;;;;;;;;;;5092798;28;20400;-79
2023/08/06 01:52:05;;;;;;;13.77;11.98;;;;;;;;;;5074322;28;20070;-80
2023/08/06 01:54:31;;;;;;;17.55;12.63;;;;;;;;;;5073919;28;20485;-80
2023/08/06 01:56:58;;;;;;;15.75;12.70;;;;;;;;;;5093940;28;20075;-78
2023/08/06 01:59:24;;;;;;;13.38;11.98;;;;;;;;;;5091247;28;20048;-79
2023/08/06 02:01:51;;;;;;;14.65;12.57;;;;;;;;;;5092925;28;20056;-78
2023/08/06 02:04:17;;;;;;;17.13;12.98;;;;;;;;;;5085077;28;20051;-78
2023/08/06 02:06:43;;;;;;;16.83;12.38;;;;;;;;;;5072944;28;20155;-78
2023/08/06 02:09:09;;;;;;;16.40;12.55;;;;;;;;;;5076903;28;20040;-78
2023/08/06 02:11:35;;;;;;;17.80;13.88;;;;;;;;;;5073304;28;20441;-78
2023/08/06 02:14:01;;;;;;;15.38;13.13;;;;;;;;;;5074055;28;20132;-78
2023/08/06 02:16:27;;;;;;;15.65;13.02;;;;;;;;;;5076121;28;20036;-79
2023/08/06 02:18:53;;;;;;;19.17;13.55;;;;;;;;;;5093579;28;20050;-79
2023/08/06 02:21:19;;;;;;;16.20;13.23;;;;;;;;;;5083109;28;20064;-79
2023/08/06 02:23:45;;;;;;;15.23;12.95;;;;;;;;;;5073412;28;20044;-79
2023/08/06 02:26:11;;;;;;;18.40;14.13;;;;;;;;;;5072742;28;20078;-79
2023/08/06 02:28:38;;;;;;;18.17;14.63;;;;;;;;;;5077396;28;20040;-79
2023/08/06 02:31:04;;;;;;;17.48;14.48;;;;;;;;;;5072570;28;20098;-79
2023/08/06 02:33:30;;;;;;;16.60;13.80;;;;;;;;;;5073504;28;20255;-79
2023/08/06 02:36:01;;;;;;;18.13;13.77;;;;;;;;;;5071943;28;20124;-79
2023/08/06 02:38:27;;;;;;;16.60;14.70;;;;;;;;;;5072882;28;20040;-79
2023/08/06 02:40:53;;;;;;;16.77;14.98;;;;;;;;;;5078976;28;20436;-79
2023/08/06 02:43:19;;;;;;;18.98;14.90;;;;;;;;;;5092794;28;20055;-79
2023/08/06 02:45:45;;;;;;;17.05;15.13;;;;;;;;;;5060378;28;20036;-79
2023/08/06 02:48:11;;;;;;;18.60;14.95;;;;;;;;;;5058241;28;20039;-79
2023/08/06 02:50:41;;;;;;;17.60;14.25;;;;;;;;;;5074766;28;20134;-79
2023/08/06 02:53:07;;;;;;;17.95;15.93;;;;;;;;;;5072741;28;20048;-79
2023/08/06 02:55:34;;;;;;;20.45;15.10;;;;;;;;;;5083246;28;20043;-79
2023/08/06 02:58:00;;;;;;;19.17;14.75;;;;;;;;;;5078143;28;20365;-79
2023/08/06 03:00:27;;;;;;;18.48;14.57;;;;;;;;;;5055858;28;20067;-79
2023/08/06 03:02:53;;;;;;;18.45;15.30;;;;;;;;;;5075417;28;20154;-79
2023/08/06 03:05:19;;;;;;;20.52;16.00;;;;;;;;;;5080466;28;20055;-79
2023/08/06 03:07:45;;;;;;;16.35;14.18;;;;;;;;;;5093279;28;20051;-79
2023/08/06 03:10:12;;;;;;;17.73;14.95;;;;;;;;;;5075438;28;20048;-80
2023/08/06 03:12:38;;;;;;;18.27;14.75;;;;;;;;;;5070709;28;20086;-80
2023/08/06 03:15:04;;;;;;;17.05;14.35;;;;;;;;;;5083175;28;20033;-78
2023/08/06 03:17:30;;;;;;;19.77;14.70;;;;;;;;;;5071779;28;20409;-78
2023/08/06 03:19:56;;;;;;;19.92;14.07;;;;;;;;;;5088737;28;20123;-78
2023/08/06 03:22:22;;;;;;;18.13;14.65;;;;;;;;;;5093006;28;20456;-79
2023/08/06 03:24:51;;;;;;;15.63;13.88;;;;;;;;;;5090815;28;20101;-79
2023/08/06 03:27:17;;;;;;;14.90;13.32;;;;;;;;;;5090110;28;20153;-79
2023/08/06 03:29:43;;;;;;;18.50;13.70;;;;;;;;;;5090424;28;20107;-79
2023/08/06 03:32:09;;;;;;;15.20;13.27;;;;;;;;;;5063029;28;20043;-79
2023/08/06 03:34:35;;;;;;;17.45;13.02;;;;;;;;;;5092013;28;20504;-79
2023/08/06 03:37:02;;;;;;;17.80;13.98;;;;;;;;;;5076540;28;20048;-79
2023/08/06 03:39:28;;;;;;;14.15;12.40;;;;;;;;;;5072282;28;20049;-79
2023/08/06 03:41:54;;;;;;;16.00;13.38;;;;;;;;;;5054083;28;20075;-79
2023/08/06 03:44:20;;;;;;;15.75;12.43;;;;;;;;;;5054573;28;20098;-79
2023/08/06 03:46:46;;;;;;;15.52;12.35;;;;;;;;;;5072212;28;20045;-79
2023/08/06 03:49:12;;;;;;;16.02;12.82;;;;;;;;;;5054367;28;20056;-79
2023/08/06 03:51:38;;;;;;;14.18;12.68;;;;;;;;;;5072180;28;20047;-79
2023/08/06 03:54:04;;;;;;;14.90;13.00;;;;;;;;;;5072330;28;20381;-80
2023/08/06 03:56:30;;;;;;;14.98;12.93;;;;;;;;;;5053706;28;20052;-79
2023/08/06 03:58:56;;;;;;;15.13;12.38;;;;;;;;;;5072099;28;20040;-80
2023/08/06 04:01:23;;;;;;;15.55;12.70;;;;;;;;;;5074874;28;20097;-80
2023/08/06 04:03:49;;;;;;;13.75;12.27;;;;;;;;;;5087516;28;20055;-80
2023/08/06 04:06:15;;;;;;;15.93;13.10;;;;;;;;;;5070085;28;20047;-80
2023/08/06 04:08:41;;;;;;;16.30;12.30;;;;;;;;;;5056924;28;20058;-79
2023/08/06 04:11:08;;;;;;;15.85;13.15;;;;;;;;;;5072049;28;20037;-80
2023/08/06 04:13:34;;;;;;;16.38;12.40;;;;;;;;;;5044567;28;20087;-79
2023/08/06 04:16:03;;;;;;;13.73;12.13;;;;;;;;;;5090333;28;20048;-80
2023/08/06 04:18:29;;;;;;;15.32;12.85;;;;;;;;;;5053909;28;20055;-79
2023/08/06 04:20:57;;;;;;;15.93;12.00;;;;;;;;;;5071647;28;20044;-80
2023/08/06 04:23:23;;;;;;;13.20;11.80;;;;;;;;;;5072104;28;20107;-80
2023/08/06 04:25:49;;;;;;;14.57;11.77;;;;;;;;;;5071353;28;20048;-79
2023/08/06 04:28:15;;;;;;;15.73;11.80;;;;;;;;;;5083979;28;20070;-79
2023/08/06 04:30:41;;;;;;;17.27;12.40;;;;;;;;;;5078861;28;20044;-80
2023/08/06 04:33:07;;;;;;;14.00;11.60;;;;;;;;;;5083686;28;20048;-80
2023/08/06 04:35:33;;;;;;;14.80;11.75;;;;;;;;;;5092826;28;20041;-78
2023/08/06 04:38:00;;;;;;;14.05;11.35;;;;;;;;;;5060042;28;20048;-78
2023/08/06 04:40:26;;;;;;;13.23;10.85;;;;;;;;;;5075102;28;20040;-79
2023/08/06 04:42:52;;;;;;;15.07;11.88;;;;;;;;;;5072955;28;20049;-79
2023/08/06 04:45:18;;;;;;;14.15;10.77;;;;;;;;;;5073179;28;20040;-79
2023/08/06 04:47:44;;;;;;;14.68;11.65;;;;;;;;;;5078812;28;20048;-78
2023/08/06 04:50:10;;;;;;;14.65;11.75;;;;;;;;;;5087132;28;20098;-79
2023/08/06 04:52:37;;;;;;;14.30;11.30;;;;;;;;;;5075045;28;20508;-79
2023/08/06 04:55:05;;;;;;;11.75;10.55;;;;;;;;;;5066368;28;20036;-79
2023/08/06 04:57:32;;;;;;;14.43;11.38;;;;;;;;;;5095410;28;20063;-79
2023/08/06 04:59:58;;;;;;;13.10;10.77;;;;;;;;;;5095440;28;20040;-79
2023/08/06 05:02:24;;;;;;;13.98;11.00;;;;;;;;;;5077027;28;20515;-79
2023/08/06 05:04:50;;;;;;;15.25;11.73;;;;;;;;;;5083087;28;20060;-80
2023/08/06 05:07:16;;;;;;;14.45;11.25;;;;;;;;;;5083799;28;20097;-79
2023/08/06 05:09:42;;;;;;;15.45;11.70;;;;;;;;;;5093223;28;20043;-79
2023/08/06 05:12:08;;;;;;;15.52;11.85;;;;;;;;;;5074525;28;20052;-79
2023/08/06 05:14:34;;;;;;;14.88;11.88;;;;;;;;;;5074628;28;20044;-81
2023/08/06 05:17:03;;;;;;;14.30;11.10;;;;;;;;;;5074556;28;20473;-79
2023/08/06 05:19:29;;;;;;;16.00;11.75;;;;;;;;;;5074729;28;20052;-79
2023/08/06 05:21:55;;;;;;;15.15;11.95;;;;;;;;;;5040008;28;20049;-79
2023/08/06 05:24:21;;;;;;;15.10;12.13;;;;;;;;;;5090671;28;20036;-80
2023/08/06 05:26:47;;;;;;;13.75;11.52;;;;;;;;;;5092127;28;20047;-79
2023/08/06 05:29:13;;;;;;;16.30;13.00;;;;;;;;;;5092913;28;20077;-79
2023/08/06 05:31:40;;;;;;;15.30;11.13;;;;;;;;;;5092439;28;20127;-80
2023/08/06 05:34:06;;;;;;;16.70;13.02;;;;;;;;;;5092561;28;20155;-79
2023/08/06 05:36:32;;;;;;;15.32;12.20;;;;;;;;;;5076181;28;20047;-79
2023/08/06 05:38:58;;;;;;;12.73;11.43;;;;;;;;;;5092908;28;20131;-79
2023/08/06 05:41:24;;;;;;;14.82;11.60;;;;;;;;;;5087704;28;20531;-80
2023/08/06 05:43:50;;;;;;;13.32;11.82;;;;;;;;;;5080848;28;20036;-80
2023/08/06 05:46:16;;;;;;;15.25;12.43;;;;;;;;;;5079516;28;20048;-80
2023/08/06 05:48:43;;;;;;;17.70;12.45;;;;;;;;;;5074313;28;20485;-80
2023/08/06 05:51:09;;;;;;;13.98;12.00;;;;;;;;;;5063180;28;20048;-80
2023/08/06 05:53:35;;;;;;;16.60;12.35;;;;;;;;;;5081274;28;20504;-80
2023/08/06 05:56:01;;;;;;;13.68;11.13;;;;;;;;;;5074330;28;20060;-73
2023/08/06 05:58:29;;;;;;;16.00;11.32;;;;;;;;;;5076933;28;20044;-74
2023/08/06 06:00:55;;;;;;;12.48;11.20;;;;;;;;;;5090985;28;20052;-74
2023/08/06 06:03:21;;;;;;;13.50;12.10;;;;;;;;;;5090151;28;20132;-74
2023/08/06 06:05:47;;;;;;;13.20;10.65;;;;;;;;;;5053877;28;20048;-74
2023/08/06 06:08:14;;;;;;;17.85;11.52;;;;;;;;;;5073597;28;20044;-74
2023/08/06 06:10:40;;;;;;;13.32;10.93;;;;;;;;;;5073312;28;20114;-73
2023/08/06 06:13:06;;;;;;;14.60;11.48;;;;;;;;;;5073503;28;20055;-73
2023/08/06 06:15:32;;;;;;;14.90;10.40;;;;;;;;;;5077197;28;20036;-73
2023/08/06 06:17:58;;;;;;;12.75;10.55;;;;;;;;;;5076162;28;20102;-73
2023/08/06 06:20:24;;;;;;;11.43;10.25;;;;;;;;;;5075259;28;20505;-73
2023/08/06 06:22:50;;;;;;;12.35;9.13;;;;;;;;;;5093610;28;20055;-73
2023/08/06 06:25:16;;;;;;;11.45;9.38;;;;;;;;;;5093227;28;20063;-73
2023/08/06 06:27:42;;;;;;;10.27;8.88;;;;;;;;;;5093512;28;20398;-73
2023/08/06 06:30:09;;;;;;;11.25;8.88;;;;;;;;;;5058381;28;20062;-73
2023/08/06 06:32:35;;;;;;;9.68;7.85;;;;;;;;;;5093578;28;20054;-72
2023/08/06 06:35:01;;;;;;;10.93;8.50;;;;;;;;;;5093030;28;20119;-73
2023/08/06 06:37:27;;;;;;;9.35;8.35;;;;;;;;;;5093072;28;20052;-73
2023/08/06 06:39:53;;;;;;;10.38;8.18;;;;;;;;;;5074623;28;20202;-73
2023/08/06 06:42:19;;;;;;;10.93;8.13;;;;;;;;;;5075420;28;20048;-73
2023/08/06 06:44:45;;;;;;;10.10;7.63;;;;;;;;;;5072944;28;20044;-73
2023/08/06 06:47:12;;;;;;;10.60;7.25;;;;;;;;;;5072939;28;20444;-74
2023/08/06 06:49:38;;;;;;;8.95;7.03;;;;;;;;;;5054702;28;20040;-74
2023/08/06 06:52:04;;;;;;;7.65;6.85;;;;;;;;;;5071890;28;20044;-73
2023/08/06 06:54:30;;;;;;;9.57;6.78;;;;;;;;;;5072061;28;20036;-73
2023/08/06 06:56:56;;;;;;;8.38;6.85;;;;;;;;;;5072631;28;20041;-72
2023/08/06 06:59:22;;;;;;;9.27;6.70;;;;;;;;;;5072550;28;20159;-72
2023/08/06 07:01:48;;;;;;;8.60;6.70;;;;;;;;;;5072128;28;20056;-72
2023/08/06 07:04:15;;;;;;;8.48;6.35;;;;;;;;;;5072516;28;20448;-74
2023/08/06 07:06:41;;;;;;;8.10;6.22;;;;;;;;;;5054251;28;20048;-74
2023/08/06 07:09:07;;;;;;;7.28;6.38;;;;;;;;;;5072734;28;20041;-74
2023/08/06 07:11:33;;;;;;;7.60;6.05;;;;;;;;;;5054437;28;20043;-74
2023/08/06 07:13:59;;;;;;;8.43;6.13;;;;;;;;;;5072444;28;20056;-74
2023/08/06 07:16:26;;;;;;;8.38;6.18;;;;;;;;;;5072277;28;20115;-73
2023/08/06 07:18:52;;;;;;;7.10;5.72;;;;;;;;;;5054898;28;20045;-74
2023/08/06 07:21:19;;;;;;;7.22;5.40;;;;;;;;;;5072307;28;20124;-74
2023/08/06 07:23:46;;;;;;;7.03;5.50;;;;;;;;;;5073801;28;20370;-74
2023/08/06 07:26:12;;;;;;;7.22;5.80;;;;;;;;;;5071841;28;20052;-73
2023/08/06 07:28:38;;;;;;;7.13;5.85;;;;;;;;;;5054261;28;20486;-74
2023/08/06 07:31:04;;;;;;;6.38;5.40;;;;;;;;;;5072123;28;20052;-74
2023/08/06 07:33:30;;;;;;;6.65;5.10;;;;;;;;;;5054431;28;20509;-74
2023/08/06 07:35:57;;;;;;;6.55;5.05;;;;;;;;;;5057178;28;20493;-74
2023/08/06 07:38:23;;;;;;;10.45;5.30;;;;;;;;;;5079873;28;20174;-73
2023/08/06 07:40:49;;;;;;;7.18;4.95;;;;;;;;;;5086974;28;20127;-73
2023/08/06 07:43:15;;;;;;;6.75;5.03;;;;;;;;;;5076822;28;20124;-73
2023/08/06 07:45:41;;;;;;;6.50;5.05;;;;;;;;;;5055375;28;20512;-74
2023/08/06 07:48:11;;;;;;;8.75;5.22;;;;;;;;;;5092414;28;20445;-74
2023/08/06 07:50:37;;;;;;;7.03;4.70;;;;;;;;;;5092164;28;20126;-73
2023/08/06 07:53:03;;;;;;;7.55;4.53;;;;;;;;;;5092576;28;20125;-73
2023/08/06 07:55:29;;;;;;;7.07;4.95;;;;;;;;;;5074673;28;20051;-73
2023/08/06 07:57:56;;;;;;;6.60;5.10;;;;;;;;;;5096400;28;20402;-73
2023/08/06 08:00:22;;;;;;;6.80;4.78;;;;;;;;;;5050858;28;20453;-73
2023/08/06 08:02:49;;;;;;;6.70;4.88;;;;;;;;;;5074037;28;20128;-74
2023/08/06 08:05:15;;;;;;;6.75;4.93;;;;;;;;;;5068297;28;20043;-74
2023/08/06 08:07:41;;;;;;;7.35;4.43;;;;;;;;;;5091821;28;20050;-74
2023/08/06 08:10:08;;;;;;;8.18;4.55;;;;;;;;;;5051777;28;20048;-74
2023/08/06 08:12:34;;;;;;;6.03;4.63;;;;;;;;;;5091428;28;20040;-74
2023/08/06 08:15:00;;;;;;;6.22;3.75;;;;;;;;;;5091886;28;20044;-75
2023/08/06 08:17:29;;;;;;;6.00;4.25;;;;;;;;;;5075012;28;20037;-74
2023/08/06 08:19:55;;;;;;;5.50;4.03;;;;;;;;;;5064888;28;20182;-74
2023/08/06 08:22:21;;;;;;;6.00;4.10;;;;;;;;;;5060909;28;20083;-74
2023/08/06 08:24:47;;;;;;;5.68;4.07;;;;;;;;;;5078969;28;20040;-74
2023/08/06 08:27:14;;;;;;;6.32;4.20;;;;;;;;;;5095731;28;20139;-75
2023/08/06 08:29:40;;;;;;;5.95;3.80;;;;;;;;;;5053134;28;20051;-74
2023/08/06 08:32:06;;;;;;;6.25;3.70;;;;;;;;;;5085947;28;20094;-74
2023/08/06 08:34:32;;;;;;;4.97;3.50;;;;;;;;;;5075440;28;20045;-74
2023/08/06 08:36:58;;;;;;;4.90;3.42;;;;;;;;;;5091124;28;20048;-74
2023/08/06 08:39:24;;;;;;;5.28;3.47;;;;;;;;;;5094146;28;20047;-74
2023/08/06 08:41:50;;;;;;;6.30;3.45;;;;;;;;;;5085691;28;20051;-74
2023/08/06 08:44:17;;;;;;;4.57;2.78;;;;;;;;;;5081733;28;20412;-74
2023/08/06 08:46:44;;;;;;;4.00;3.00;;;;;;;;;;5071766;28;20047;-75
2023/08/06 08:49:11;;;;;;;5.55;3.10;;;;;;;;;;5075716;28;20374;-75
2023/08/06 08:51:37;;;;;;;4.70;3.00;;;;;;;;;;5059042;28;20050;-74
2023/08/06 08:54:04;;;;;;;4.22;2.92;;;;;;;;;;5045258;28;20051;-74
2023/08/06 08:56:30;;;;;;;4.85;3.00;;;;;;;;;;5072472;28;20100;-74
2023/08/06 08:58:57;;;;;;;4.38;2.70;;;;;;;;;;5054269;28;20557;-74
2023/08/06 09:01:23;;;;;;;4.35;2.65;;;;;;;;;;5073212;28;20080;-74
2023/08/06 09:03:50;;;;;;;3.88;2.70;;;;;;;;;;5074905;28;20067;-74
2023/08/06 09:06:17;;;;;;;4.57;3.10;;;;;;;;;;5075326;28;20036;-73
2023/08/06 09:08:47;;;;;;;4.25;2.83;;;;;;;;;;5082287;28;20078;-74
2023/08/06 09:11:13;;;;;;;4.55;2.42;;;;;;;;;;5060967;28;20496;-75
2023/08/06 09:13:39;;;;;;;4.22;2.88;;;;;;;;;;5059752;28;20624;-74
2023/08/06 09:16:06;;;;;;;4.07;2.58;;;;;;;;;;5094699;28;20379;-73
2023/08/06 09:18:32;;;;;;;3.53;2.40;;;;;;;;;;5094961;28;20047;-73
2023/08/06 09:20:58;;;;;;;3.88;2.58;;;;;;;;;;5093757;28;20424;-80
2023/08/06 09:23:30;;;;;;;6.03;2.58;;;;;;;;;;5077912;28;20041;-79
2023/08/06 09:25:56;;;;;;;3.20;2.03;;;;;;;;;;5075380;28;20048;-77
2023/08/06 09:28:24;;;;;;;5.95;2.50;;;;;;;;;;5080172;28;20032;-77
2023/08/06 09:30:51;;;;;;;4.68;2.42;;;;;;;;;;5075942;28;20512;-75
2023/08/06 09:33:20;;;;;;;4.28;2.40;;;;;;;;;;5092999;28;20491;-76
2023/08/06 09:35:47;;;;;;;4.50;2.20;;;;;;;;;;5086393;28;20115;-76
2023/08/06 09:38:13;;;;;;;4.95;2.25;;;;;;;;;;5062161;28;20051;-76
2023/08/06 09:40:40;;;;;;;5.00;2.20;;;;;;;;;;5093745;28;20086;-76
2023/08/06 09:43:06;;;;;;;5.97;2.13;;;;;;;;;;5094639;28;20047;-76
2023/08/06 09:45:33;;;;;;;3.72;2.05;;;;;;;;;;5092878;28;20047;-75
2023/08/06 09:47:59;;;;;;;3.75;2.15;;;;;;;;;;5092684;28;20048;-75
2023/08/06 09:50:30;;;;;;;4.45;1.90;;;;;;;;;;5093801;28;20036;-75
2023/08/06 09:52:57;;;;;;;8.30;2.10;;;;;;;;;;5076276;28;20044;-75
2023/08/06 09:55:24;;;;;;;4.72;2.10;;;;;;;;;;5076149;28;20051;-75
2023/08/06 09:57:51;;;;;;;2.85;1.90;;;;;;;;;;5076497;28;20090;-75
2023/08/06 10:00:18;;;;;;;3.97;2.00;;;;;;;;;;5094300;28;20101;-74
2023/08/06 10:02:44;;;;;;;6.60;1.90;;;;;;;;;;5094429;28;20052;-75
2023/08/06 10:05:10;;;;;;;5.53;1.83;;;;;;;;;;5075296;28;20122;-75
2023/08/06 10:07:39;;;;;;;3.08;1.85;;;;;;;;;;5094196;28;20097;-75
2023/08/06 10:10:05;;;;;;;3.33;1.80;;;;;;;;;;5075591;28;20059;-75
2023/08/06 10:12:33;;;;;;;4.80;1.73;;;;;;;;;;5088592;28;20105;-76
2023/08/06 10:15:01;;;;;;;4.82;1.85;;;;;;;;;;5084575;28;20048;-76
2023/08/06 10:17:28;;;;;;;3.00;1.70;;;;;;;;;;5073580;28;20040;-76
2023/08/06 10:19:58;;;;;;;3.35;1.70;;;;;;;;;;5086011;28;20420;-75
2023/08/06 10:22:24;;;;;;;2.40;1.52;;;;;;;;;;5089910;28;20039;-75
2023/08/06 10:24:57;;;;;;;3.45;1.70;;;;;;;;;;5054967;28;20060;-75
2023/08/06 10:27:34;;;;;;;4.78;1.92;;;;;;;;;;5091834;28;20532;-75
2023/08/06 10:30:18;;;;;;;2.65;1.60;;;;;;;;;;5075471;28;20512;-76
2023/08/06 10:32:49;;;;;;;2.60;1.70;;;;;;;;;;5093607;28;20138;-76
2023/08/06 10:35:30;;;;;;;4.00;1.90;;;;;;;;;;5093243;28;20044;-77
2023/08/06 10:38:00;;;;;;;3.00;1.70;;;;;;;;;;5080320;28;20040;-75
2023/08/06 10:40:26;;;;;;;6.53;1.80;;;;;;;;;;5067220;28;20362;-75
2023/08/06 10:42:52;;;;;;;3.83;2.10;;;;;;;;;;5077162;28;20044;-76
2023/08/06 10:45:19;;;;;;;4.07;1.75;;;;;;;;;;5072760;28;20090;-77
2023/08/06 10:47:46;;;;;;;3.60;1.80;;;;;;;;;;5055513;28;20048;-76
2023/08/06 10:50:13;;;;;;;2.88;1.70;;;;;;;;;;5072865;28;20500;-77
2023/08/06 10:52:40;;;;;;;6.63;2.28;;;;;;;;;;5054735;28;20127;-77
2023/08/06 10:55:09;;;;;;;4.72;1.85;;;;;;;;;;5072090;28;20397;-76
2023/08/06 10:57:36;;;;;;;3.90;1.95;;;;;;;;;;5038574;28;20103;-76
2023/08/06 11:00:04;;;;;;;3.22;1.60;;;;;;;;;;5072411;28;20041;-77
2023/08/06 11:02:34;;;;;;;3.45;1.85;;;;;;;;;;5072647;28;20068;-77
2023/08/06 11:05:05;;;;;;;4.43;2.25;;;;;;;;;;5066822;28;20117;-77
2023/08/06 11:07:31;;;;;;;3.72;2.13;;;;;;;;;;5074802;28;20043;-77
2023/08/06 11:10:04;;;;;;;3.05;1.85;;;;;;;;;;5076561;28;20076;-76
2023/08/06 11:12:31;;;;;;;3.00;1.75;;;;;;;;;;5054885;28;20144;-77
2023/08/06 11:14:59;;;;;;;2.83;1.80;;;;;;;;;;5072395;28;20098;-77
2023/08/06 11:17:25;;;;;;;3.42;1.75;;;;;;;;;;5074627;28;20425;-76
2023/08/06 11:19:53;;;;;;;3.13;1.83;;;;;;;;;;5071940;28;20063;-76
2023/08/06 11:22:19;;;;;;;4.90;2.00;;;;;;;;;;5074520;28;20409;-77
2023/08/06 11:24:45;;;;;;;5.07;2.20;;;;;;;;;;5074141;28;20128;-76
2023/08/06 11:27:15;;;;;;;5.45;1.80;;;;;;;;;;5090993;28;20048;-86
2023/08/06 11:29:42;;;;;;;2.83;1.75;;;;;;;;;;5058054;28;20087;-77
2023/08/06 11:32:12;;;;;;;2.55;1.70;;;;;;;;;;5093021;28;20122;-78
2023/08/06 11:34:38;;;;;;;3.85;1.80;;;;;;;;;;5074286;28;20048;-77
2023/08/06 11:37:05;;;;;;;3.92;1.80;;;;;;;;;;5092973;28;20047;-78
2023/08/06 11:39:32;;;;;;;2.45;1.67;;;;;;;;;;5092967;28;20044;-78
2023/08/06 11:42:00;;;;;;;3.75;2.00;;;;;;;;;;5092685;28;20047;-78
2023/08/06 11:44:26;;;;;;;3.88;1.70;;;;;;;;;;5074904;28;20097;-77
2023/08/06 11:46:52;;;;;;;6.18;1.90;;;;;;;;;;5084660;28;20366;-77
2023/08/06 11:49:24;;;;;;;2.85;1.83;;;;;;;;;;5072599;28;20037;-77
2023/08/06 11:51:50;;;;;;;4.28;1.80;;;;;;;;;;5066136;28;20052;-75
2023/08/06 11:54:17;;;;;;;3.33;1.70;;;;;;;;;;5054578;28;20040;-76
2023/08/06 11:56:43;;;;;;;3.67;1.60;;;;;;;;;;5057560;28;20501;-77
2023/08/06 11:59:10;;;;;;;2.83;1.67;;;;;;;;;;5075821;28;20446;-77
2023/08/06 12:01:36;;;;;;;2.42;1.60;;;;;;;;;;5076119;28;20456;-77
2023/08/06 12:04:02;;;;;;;3.58;1.60;;;;;;;;;;5080746;28;20043;-77
2023/08/06 12:06:28;;;;;;;4.15;1.88;;;;;;;;;;5070831;28;20040;-77
2023/08/06 12:08:54;;;;;;;4.82;1.80;;;;;;;;;;5062871;28;20040;-77
2023/08/06 12:11:24;;;;;;;3.58;1.88;;;;;;;;;;5084669;28;20492;-78
2023/08/06 12:13:56;;;;;;;4.72;1.98;;;;;;;;;;5069951;28;20095;-77
2023/08/06 12:16:23;;;;;;;3.38;1.70;;;;;;;;;;5064861;28;20083;-77
2023/08/06 12:18:50;;;;;;;4.72;2.00;;;;;;;;;;5074876;28;20048;-77
2023/08/06 12:21:16;;;;;;;3.72;2.10;;;;;;;;;;5074930;28;20067;-77
2023/08/06 12:23:42;;;;;;;3.63;1.90;;;;;;;;;;5076723;28;20044;-77
2023/08/06 12:26:08;;;;;;;12.20;3.85;;;;;;;;;;5084322;28;20150;-77
2023/08/06 12:28:34;;;;;;;6.10;2.20;;;;;;;;;;5080688;28;20048;-77
2023/08/06 12:31:00;;;;;;;7.45;3.08;;;;;;;;;;5089787;28;20043;-77
2023/08/06 12:33:26;;;;;;;3.05;1.90;;;;;;;;;;5082312;28;20036;-77
2023/08/06 12:35:57;;;;;;;5.25;2.10;;;;;;;;;;5078972;28;20036;-77
2023/08/06 12:38:23;;;;;;;3.45;1.98;;;;;;;;;;5093481;28;20392;-77
2023/08/06 12:40:49;;;;;;;5.90;2.10;;;;;;;;;;5095478;28;20044;-78
2023/08/06 12:43:15;;;;;;;3.88;1.98;;;;;;;;;;5094021;28;20048;-78
2023/08/06 12:45:41;;;;;;;4.57;2.13;;;;;;;;;;5089434;28;20044;-76
2023/08/06 12:48:07;;;;;;;3.67;1.92;;;;;;;;;;5077087;28;20044;-73
2023/08/06 12:50:34;;;;;;;4.03;1.70;;;;;;;;;;5057583;28;20098;-74
2023/08/06 12:53:00;;;;;;;4.85;1.65;;;;;;;;;;5081320;28;20056;-74
2023/08/06 12:55:26;;;;;;;2.97;1.98;;;;;;;;;;5056274;28;20123;-73
2023/08/06 12:57:53;;;;;;;3.17;1.80;;;;;;;;;;5056560;28;20079;-74
2023/08/06 13:00:19;;;;;;;2.90;1.80;;;;;;;;;;5074115;28;20040;-74
2023/08/06 13:02:45;;;;;;;3.90;1.83;;;;;;;;;;5074192;28;20049;-74
2023/08/06 13:05:11;;;;;;;3.78;1.80;;;;;;;;;;5072700;28;20111;-73
2023/08/06 13:07:37;;;;;;;2.83;1.92;;;;;;;;;;5073344;28;20051;-72
2023/08/06 13:10:03;;;;;;;3.95;1.92;;;;;;;;;;5056374;28;20052;-72
2023/08/06 13:12:30;;;;;;;3.15;1.90;;;;;;;;;;5074287;28;20052;-72
2023/08/06 13:14:58;;;;;;;3.47;1.88;;;;;;;;;;5074467;28;20044;-73
2023/08/06 13:17:24;;;;;;;3.53;1.80;;;;;;;;;;5074605;28;20045;-73
2023/08/06 13:19:50;;;;;;;4.18;1.83;;;;;;;;;;5074512;28;20045;-74
2023/08/06 13:22:16;;;;;;;3.35;1.90;;;;;;;;;;5055819;28;20040;-73
2023/08/06 13:24:42;;;;;;;3.03;1.90;;;;;;;;;;5073681;28;20451;-73
2023/08/06 13:27:09;;;;;;;3.40;1.80;;;;;;;;;;5074303;28;20040;-73
2023/08/06 13:29:35;;;;;;;3.53;2.05;;;;;;;;;;5074115;28;20087;-73
2023/08/06 13:32:01;;;;;;;3.38;2.00;;;;;;;;;;5074030;28;20044;-73
2023/08/06 13:34:28;;;;;;;3.38;2.08;;;;;;;;;;5074263;28;20115;-73
2023/08/06 13:36:54;;;;;;;3.92;1.80;;;;;;;;;;5056017;28;20152;-73
2023/08/06 13:39:20;;;;;;;2.65;1.75;;;;;;;;;;5079218;28;20447;-77
2023/08/06 13:41:46;;;;;;;3.00;2.00;;;;;;;;;;5064251;28;20558;-77
2023/08/06 13:44:14;;;;;;;4.82;2.10;;;;;;;;;;5074198;28;20412;-77
2023/08/06 13:46:41;;;;;;;7.63;4.43;;;;;;;;;;5075241;28;20066;-77
2023/08/06 13:49:07;;;;;;;4.70;2.58;;;;;;;;;;5094966;28;20459;-77
2023/08/06 13:51:35;;;;;;;4.28;2.78;;;;;;;;;;5062278;28;20048;-77
2023/08/06 13:54:01;;;;;;;5.05;2.30;;;;;;;;;;5085360;28;20067;-77
2023/08/06 13:56:29;;;;;;;4.63;3.30;;;;;;;;;;5073751;28;20051;-73
2023/08/06 13:58:55;;;;;;;3.80;2.33;;;;;;;;;;5078957;28;20051;-73
2023/08/06 14:01:21;;;;;;;5.03;2.40;;;;;;;;;;5075060;28;20067;-73
2023/08/06 14:03:48;;;;;;;3.63;2.05;;;;;;;;;;5093553;28;20046;-74
2023/08/06 14:06:15;;;;;;;5.43;2.47;;;;;;;;;;5093563;28;20085;-73
2023/08/06 14:08:41;;;;;;;3.88;2.00;;;;;;;;;;5094062;28;20082;-73
2023/08/06 14:11:07;;;;;;;3.92;1.90;;;;;;;;;;5093454;28;20123;-73
2023/08/06 14:13:33;;;;;;;4.13;1.90;;;;;;;;;;5094015;28;20044;-74
2023/08/06 14:15:59;;;;;;;3.60;1.73;;;;;;;;;;5091973;28;20047;-73
2023/08/06 14:18:25;;;;;;;3.47;1.90;;;;;;;;;;5092841;28;20050;-74
2023/08/06 14:20:51;;;;;;;4.07;2.05;;;;;;;;;;5093626;28;20052;-74
2023/08/06 14:23:17;;;;;;;2.85;1.77;;;;;;;;;;5093701;28;20036;-73
2023/08/06 14:25:44;;;;;;;3.25;2.03;;;;;;;;;;5093250;28;20055;-73
2023/08/06 14:28:10;;;;;;;3.70;1.90;;;;;;;;;;5093820;28;20048;-72